Time;durP1;ratioP1;P1;durP2;ratioP2;P2;SDS_P1;SDS_P2;PMS_P1;PMS_P2;Temp;Humidity;BMP_temperature;BMP_pressure;BME280_temperature;BME280_humidity;BME280_pressure;Samples;Min_cycle;Max_cycle;Signal;HPM_P1;HPM_P2
2022/09/17 00:04:33;;;;;;;;;;;;;;;13.20;88.09;99259.09;10590145;28;19932;-73
2022/09/17 00:09:36;;;;;;;;;;;;;;;13.34;86.81;99254.22;10589864;28;19992;-72
2022/09/17 00:14:40;;;;;;;;;;;;;;;13.24;87.28;99252.03;10589741;28;20007;-70
2022/09/17 00:19:44;;;;;;;;;;;;;;;13.31;87.27;99256.94;10589604;28;19924;-71
2022/09/17 00:24:47;;;;;;;;;;;;;;;13.29;86.86;99257.91;10589328;28;20055;-72
2022/09/17 00:29:50;;;;;;;;;;;;;;;13.27;86.77;99264.97;10589175;28;19923;-73
2022/09/17 00:34:54;;;;;;;;;;;;;;;13.30;87.59;99260.47;10588901;28;20340;-71
2022/09/17 00:39:57;;;;;;;;;;;;;;;13.21;87.48;99265.19;10588865;28;19924;-71
2022/09/17 00:45:00;;;;;;;;;;;;;;;13.11;87.68;99261.22;10588550;28;20274;-72
2022/09/17 00:50:06;;;;;;;;;;;;;;;13.07;87.89;99276.13;10588209;28;19923;-72
2022/09/17 00:55:13;;;;;;;;;;;;;;;13.09;88.04;99276.06;10588044;28;19931;-70
2022/09/17 01:00:16;;;;;;;;;;;;;;;13.01;88.44;99278.06;10587968;28;20408;-73
2022/09/17 01:05:24;;;;;;;;;;;;;;;13.01;88.02;99276.31;10587669;28;19963;-73
2022/09/17 01:10:34;;;;;;;;;;;;;;;13.01;87.82;99278.06;10587590;28;19991;-71
2022/09/17 01:15:41;;;;;;;;;;;;;;;13.07;87.75;99270.06;10587100;28;19924;-71
2022/09/17 01:21:03;;;;;;;;;;;;;;;13.06;87.60;99277.03;10587146;28;19928;-74
2022/09/17 01:26:15;;;;;;;;;;;;;;;12.92;88.36;99268.00;10586887;28;20072;-69
2022/09/17 01:31:24;;;;;;;;;;;;;;;12.99;87.66;99262.50;10586847;28;19935;-73
2022/09/17 01:36:33;;;;;;;;;;;;;;;12.94;87.95;99264.44;10587165;28;20404;-72
2022/09/17 01:41:41;;;;;;;;;;;;;;;13.09;87.26;99270.84;10586322;28;20023;-70
2022/09/17 01:46:47;;;;;;;;;;;;;;;12.92;87.85;99268.84;10586204;28;20014;-73
2022/09/17 01:51:51;;;;;;;;;;;;;;;12.84;88.60;99276.06;10586802;28;19996;-72
2022/09/17 01:56:56;;;;;;;;;;;;;;;12.87;88.45;99273.38;10586488;28;20340;-75
2022/09/17 02:02:05;;;;;;;;;;;;;;;12.80;88.45;99277.13;10585211;28;20007;-72
2022/09/17 02:07:09;;;;;;;;;;;;;;;12.82;88.13;99277.91;10585519;28;20306;-74
2022/09/17 02:12:17;;;;;;;;;;;;;;;12.78;88.45;99271.97;10585207;28;20305;-74
2022/09/17 02:17:24;;;;;;;;;;;;;;;12.76;88.14;99268.56;10585212;28;19924;-75
2022/09/17 02:22:29;;;;;;;;;;;;;;;12.62;89.17;99263.00;10585207;28;19972;-68
2022/09/17 02:27:44;;;;;;;;;;;;;;;12.66;88.77;99261.13;10585046;28;20022;-71
2022/09/17 02:32:49;;;;;;;;;;;;;;;12.52;89.17;99261.63;10585099;28;20300;-72
2022/09/17 02:37:52;;;;;;;;;;;;;;;12.61;89.04;99255.25;10585297;28;19978;-75
2022/09/17 02:43:05;;;;;;;;;;;;;;;12.60;88.88;99258.75;10584742;28;20264;-74
2022/09/17 02:48:19;;;;;;;;;;;;;;;12.67;88.09;99261.06;10584988;28;19970;-73
2022/09/17 02:53:31;;;;;;;;;;;;;;;12.52;88.71;99258.19;10585170;28;20013;-70
2022/09/17 02:58:38;;;;;;;;;;;;;;;12.56;88.97;99264.97;10584352;28;20018;-69
2022/09/17 03:03:43;;;;;;;;;;;;;;;12.52;89.02;99260.78;10584896;28;19927;-70
2022/09/17 03:08:47;;;;;;;;;;;;;;;12.38;89.78;99255.19;10584290;28;20322;-69
2022/09/17 03:13:50;;;;;;;;;;;;;;;12.34;89.70;99264.00;10587742;28;19924;-72
2022/09/17 03:18:55;;;;;;;;;;;;;;;12.24;90.03;99260.88;10592104;28;20260;-72
2022/09/17 03:23:59;;;;;;;;;;;;;;;12.16;91.02;99260.31;10591946;28;19932;-74
2022/09/17 03:29:02;;;;;;;;;;;;;;;12.09;91.66;99263.16;10592378;28;19923;-75
2022/09/17 03:34:06;;;;;;;;;;;;;;;12.26;91.13;99258.22;10591471;28;20000;-72
2022/09/17 03:39:09;;;;;;;;;;;;;;;12.26;90.99;99260.84;10591198;28;20365;-72
2022/09/17 03:44:12;;;;;;;;;;;;;;;12.18;90.52;99258.47;10591044;28;20010;-74
2022/09/17 03:49:16;;;;;;;;;;;;;;;12.03;91.56;99250.38;10590649;28;19924;-72
2022/09/17 03:54:19;;;;;;;;;;;;;;;12.04;92.09;99258.13;9879691;28;9999916;-69
2022/09/17 03:59:22;;;;;;;;;;;;;;;12.17;91.57;99248.13;10584366;28;19931;-74
2022/09/17 04:04:27;;;;;;;;;;;;;;;12.19;91.32;99251.53;10584159;28;19980;-72
2022/09/17 04:09:30;;;;;;;;;;;;;;;12.16;91.22;99251.66;10584349;28;19927;-76
2022/09/17 04:14:36;;;;;;;;;;;;;;;12.10;91.39;99260.50;10584224;28;19927;-74
2022/09/17 04:19:41;;;;;;;;;;;;;;;12.08;91.78;99253.69;10583697;28;19954;-77
2022/09/17 04:24:44;;;;;;;;;;;;;;;12.09;91.81;99255.38;10583526;28;19938;-76
2022/09/17 04:29:47;;;;;;;;;;;;;;;12.03;91.98;99252.97;10583295;28;19973;-73
2022/09/17 04:34:51;;;;;;;;;;;;;;;12.15;91.81;99262.97;10583512;28;19934;-65
2022/09/17 04:39:54;;;;;;;;;;;;;;;12.03;92.02;99256.41;10584668;28;20347;-70
2022/09/17 04:44:57;;;;;;;;;;;;;;;12.08;92.23;99256.28;10584510;28;19997;-70
2022/09/17 04:50:02;;;;;;;;;;;;;;;12.06;92.25;99253.69;10583017;28;19928;-72
2022/09/17 04:55:05;;;;;;;;;;;;;;;12.01;92.78;99259.97;10547058;28;20038;-70
2022/09/17 05:00:09;;;;;;;;;;;;;;;11.90;93.22;99262.06;10540604;28;19935;-71
2022/09/17 05:05:14;;;;;;;;;;;;;;;11.87;94.52;99259.59;10539579;28;19930;-70
2022/09/17 05:10:18;;;;;;;;;;;;;;;11.98;93.78;99263.50;10539268;28;19946;-70
2022/09/17 05:15:21;;;;;;;;;;;;;;;11.92;94.61;99268.94;10538966;28;19928;-69
2022/09/17 05:20:26;;;;;;;;;;;;;;;12.01;94.99;99275.59;10539326;28;20414;-75
2022/09/17 05:25:29;;;;;;;;;;;;;;;12.06;94.50;99277.09;10516140;28;19936;-74
2022/09/17 05:30:33;;;;;;;;;;;;;;;12.15;94.17;99278.56;10496948;28;19928;-75
2022/09/17 05:35:37;;;;;;;;;;;;;;;12.11;94.36;99271.78;10497986;28;19925;-72
2022/09/17 05:40:40;;;;;;;;;;;;;;;12.17;94.60;99267.19;10506479;28;20019;-72
2022/09/17 05:45:43;;;;;;;;;;;;;;;12.28;94.11;99261.63;10538763;28;19924;-72
2022/09/17 05:50:48;;;;;;;;;;;;;;;12.29;93.91;99258.13;10543043;28;20301;-73
2022/09/17 05:55:51;;;;;;;;;;;;;;;12.33;93.54;99251.91;10542741;28;19932;-65
2022/09/17 06:00:54;;;;;;;;;;;;;;;12.39;94.06;99254.31;10540921;28;19928;-69
2022/09/17 06:05:59;;;;;;;;;;;;;;;12.72;92.62;99240.06;10541816;28;19952;-69
2022/09/17 06:11:03;;;;;;;;;;;;;;;12.77;91.77;99239.00;10540411;28;19924;-70
2022/09/17 06:16:07;;;;;;;;;;;;;;;12.92;91.04;99231.53;10540317;28;19925;-68
2022/09/17 06:21:11;;;;;;;;;;;;;;;13.05;90.28;99222.38;10536098;28;19977;-70
2022/09/17 06:26:14;;;;;;;;;;;;;;;13.12;90.43;99237.72;10541968;28;19981;-71
2022/09/17 06:31:17;;;;;;;;;;;;;;;13.31;88.50;99233.50;10534433;28;19924;-69
2022/09/17 06:36:21;;;;;;;;;;;;;;;13.40;87.94;99217.50;10540288;28;19985;-67
2022/09/17 06:41:25;;;;;;;;;;;;;;;13.52;86.70;99208.34;10541839;28;19932;-67
2022/09/17 06:46:28;;;;;;;;;;;;;;;13.57;86.48;99211.59;10541845;28;20293;-67
2022/09/17 06:51:33;;;;;;;;;;;;;;;13.67;85.27;99221.59;10549897;28;19932;-74
2022/09/17 06:56:36;;;;;;;;;;;;;;;13.59;84.19;99215.00;10197104;28;10000116;-78
2022/09/17 07:01:39;;;;;;;;;;;;;;;13.65;84.88;99233.84;10544559;28;19935;-75
2022/09/17 07:06:44;;;;;;;;;;;;;;;13.75;84.47;99240.38;10502894;28;19973;-69
2022/09/17 07:11:47;;;;;;;;;;;;;;;13.97;83.76;99237.75;10501787;28;20284;-71
2022/09/17 07:16:52;;;;;;;;;;;;;;;14.09;83.38;99224.19;10531979;28;19963;-73
2022/09/17 07:21:56;;;;;;;;;;;;;;;14.29;82.86;99236.44;10505091;28;20010;-69
2022/09/17 07:26:59;;;;;;;;;;;;;;;14.02;83.08;99256.66;10519138;28;20014;-70
2022/09/17 07:32:02;;;;;;;;;;;;;;;14.01;83.34;99254.97;10543773;28;19959;-74
2022/09/17 07:37:07;;;;;;;;;;;;;;;13.99;84.12;99262.00;10542932;28;19982;-75
2022/09/17 07:42:10;;;;;;;;;;;;;;;14.00;84.47;99270.66;10539797;28;19946;-74
2022/09/17 07:47:13;;;;;;;;;;;;;;;14.00;84.56;99278.50;10500709;28;20373;-73
2022/09/17 07:52:17;;;;;;;;;;;;;;;14.05;84.37;99271.34;10500832;28;19928;-76
2022/09/17 07:57:21;;;;;;;;;;;;;;;14.08;84.55;99271.22;10544456;28;19927;-73
2022/09/17 08:02:24;;;;;;;;;;;;;;;13.96;85.55;99275.16;10564918;28;20011;-76
2022/09/17 08:07:30;;;;;;;;;;;;;;;13.97;85.69;99284.72;10502765;28;19929;-75
2022/09/17 08:12:33;;;;;;;;;;;;;;;13.74;86.30;99283.03;10517635;28;19924;-75
2022/09/17 08:17:36;;;;;;;;;;;;;;;13.89;86.25;99271.97;10539328;28;19924;-73
2022/09/17 08:22:41;;;;;;;;;;;;;;;13.81;86.43;99273.19;10539828;28;19924;-76
2022/09/17 08:27:52;;;;;;;;;;;;;;;13.84;86.45;99275.66;10542842;28;19928;-73
2022/09/17 08:32:56;;;;;;;;;;;;;;;13.77;87.55;99295.94;10536215;28;20655;-73
2022/09/17 08:38:00;;;;;;;;;;;;;;;13.90;86.85;99309.34;10537759;28;19938;-76
2022/09/17 08:43:04;;;;;;;;;;;;;;;13.93;87.45;99312.69;10540091;28;19928;-67
2022/09/17 08:48:11;;;;;;;;;;;;;;;14.03;87.25;99309.69;10539499;28;19935;-69
2022/09/17 08:53:26;;;;;;;;;;;;;;;14.22;86.53;99311.47;10539907;28;19932;-67
2022/09/17 08:58:37;;;;;;;;;;;;;;;14.35;86.44;99299.66;10540287;28;19924;-71
2022/09/17 09:03:48;;;;;;;;;;;;;;;14.64;85.97;99293.16;10539997;28;19976;-69
2022/09/17 09:08:56;;;;;;;;;;;;;;;14.90;83.62;99285.03;10539232;28;19932;-67
2022/09/17 09:14:04;;;;;;;;;;;;;;;14.80;83.44;99284.63;10521996;28;19928;-66
2022/09/17 09:19:16;;;;;;;;;;;;;;;15.10;83.12;99289.38;10509647;28;19951;-66
2022/09/17 09:24:23;;;;;;;;;;;;;;;15.12;80.71;99290.16;10519380;28;19981;-76
2022/09/17 09:29:35;;;;;;;;;;;;;;;15.04;81.41;99296.59;10539377;28;20024;-74
2022/09/17 09:34:38;;;;;;;;;;;;;;;14.91;81.24;99302.41;10538902;28;19932;-78
2022/09/17 09:39:43;;;;;;;;;;;;;;;14.87;81.71;99295.63;10506743;28;19925;-76
2022/09/17 09:44:48;;;;;;;;;;;;;;;14.94;80.37;99290.03;10497641;28;19939;-73
2022/09/17 09:50:03;;;;;;;;;;;;;;;14.91;81.48;99287.59;10498089;28;19982;-73
2022/09/17 09:55:19;;;;;;;;;;;;;;;15.36;80.63;99283.81;10505813;28;19939;-74
2022/09/17 10:00:30;;;;;;;;;;;;;;;15.14;80.94;99286.53;10495793;28;19968;-76
2022/09/17 10:05:33;;;;;;;;;;;;;;;14.98;81.14;99293.38;10496133;28;20489;-75
2022/09/17 10:10:39;;;;;;;;;;;;;;;14.83;82.49;99302.75;10496294;28;19936;-73
2022/09/17 10:15:42;;;;;;;;;;;;;;;14.90;83.34;99300.72;10496187;28;19934;-73
2022/09/17 10:20:55;;;;;;;;;;;;;;;14.78;84.99;99307.34;10495419;28;19933;-76
2022/09/17 10:26:03;;;;;;;;;;;;;;;14.87;84.23;99306.09;10495298;28;19939;-74
2022/09/17 10:31:09;;;;;;;;;;;;;;;14.91;84.02;99316.31;10495304;28;20419;-77
2022/09/17 10:36:13;;;;;;;;;;;;;;;14.82;84.23;99314.09;10495478;28;19937;-76
2022/09/17 10:41:20;;;;;;;;;;;;;;;14.69;84.82;99320.78;10496809;28;19982;-75
2022/09/17 10:46:27;;;;;;;;;;;;;;;14.59;85.60;99342.16;10500863;28;19924;-74
2022/09/17 10:51:30;;;;;;;;;;;;;;;14.47;86.04;99347.88;10501406;28;20015;-77
2022/09/17 10:56:36;;;;;;;;;;;;;;;14.62;86.11;99348.09;10500913;28;19924;-74
2022/09/17 11:01:48;;;;;;;;;;;;;;;14.74;85.42;99341.47;10153939;28;10000595;-74
2022/09/17 11:07:06;;;;;;;;;;;;;;;14.77;85.71;99360.47;10536502;28;19982;-75
2022/09/17 11:12:20;;;;;;;;;;;;;;;14.60;86.64;99367.38;10534493;28;19924;-78
2022/09/17 11:17:31;;;;;;;;;;;;;;;14.54;87.76;99344.97;10501077;28;19932;-76
2022/09/17 11:22:43;;;;;;;;;;;;;;;14.65;87.77;99319.22;10505045;28;19929;-80
2022/09/17 11:27:53;;;;;;;;;;;;;;;15.49;84.65;99314.56;10524127;28;19936;-78
2022/09/17 11:33:08;;;;;;;;;;;;;;;15.47;83.80;99319.03;10530653;28;20006;-80
2022/09/17 11:38:14;;;;;;;;;;;;;;;15.14;85.69;99325.75;10538003;28;19924;-80
2022/09/17 11:43:25;;;;;;;;;;;;;;;15.23;84.76;99316.66;10509702;28;20428;-77
2022/09/17 11:48:33;;;;;;;;;;;;;;;15.17;84.32;99303.88;10192399;28;9999709;-79
2022/09/17 11:53:39;;;;;;;;;;;;;;;15.42;83.60;99314.91;10535846;28;20251;-80
2022/09/17 11:58:46;;;;;;;;;;;;;;;15.74;82.03;99307.25;10541688;28;20279;-79
2022/09/17 12:03:53;;;;;;;;;;;;;;;16.48;78.83;99315.84;10535854;28;19943;-78
2022/09/17 12:09:00;;;;;;;;;;;;;;;17.49;74.74;99313.06;10541992;28;19931;-76
2022/09/17 12:14:08;;;;;;;;;;;;;;;17.28;74.79;99299.31;10541708;28;19928;-74
2022/09/17 12:19:15;;;;;;;;;;;;;;;16.45;77.91;99302.84;10539226;28;19928;-76
2022/09/17 12:24:21;;;;;;;;;;;;;;;16.01;80.22;99302.47;10542873;28;20018;-75
2022/09/17 12:29:44;;;;;;;;;;;;;;;15.73;81.25;99300.34;10541160;28;19979;-68
2022/09/17 12:34:52;;;;;;;;;;;;;;;15.78;81.45;99308.81;10541007;28;20031;-74
2022/09/17 12:40:04;;;;;;;;;;;;;;;15.72;81.01;99311.69;10574071;28;19938;-74
2022/09/17 12:45:15;;;;;;;;;;;;;;;15.64;79.59;99313.84;10582648;28;19924;-74
2022/09/17 12:50:20;;;;;;;;;;;;;;;15.68;79.12;99317.16;10557616;28;19924;-76
2022/09/17 12:55:30;;;;;;;;;;;;;;;15.62;78.85;99297.38;10540134;28;20024;-72
2022/09/17 13:00:36;;;;;;;;;;;;;;;15.74;79.08;99298.53;10540582;28;19924;-76
2022/09/17 13:05:46;;;;;;;;;;;;;;;15.78;79.09;99293.09;10540854;28;19928;-75
2022/09/17 13:11:13;;;;;;;;;;;;;;;15.69;79.50;99304.00;10501116;28;20573;-76
2022/09/17 13:16:19;;;;;;;;;;;;;;;15.58;80.48;99308.88;10498742;28;19929;-78
2022/09/17 13:21:29;;;;;;;;;;;;;;;15.46;81.21;99312.06;10501682;28;20253;-78
2022/09/17 13:26:34;;;;;;;;;;;;;;;15.35;81.83;99306.47;10522494;28;20019;-76
2022/09/17 13:31:48;;;;;;;;;;;;;;;15.44;82.04;99303.47;10529411;28;19947;-76
2022/09/17 13:36:52;;;;;;;;;;;;;;;15.48;82.46;99296.34;10529987;28;20311;-79
2022/09/17 13:42:01;;;;;;;;;;;;;;;15.41;82.55;99302.78;10546392;28;20397;-78
2022/09/17 13:47:13;;;;;;;;;;;;;;;15.41;82.25;99297.53;10544204;28;19924;-75
2022/09/17 13:52:28;;;;;;;;;;;;;;;15.47;82.13;99302.47;10544038;28;20358;-76
2022/09/17 13:57:34;;;;;;;;;;;;;;;15.47;82.08;99297.25;10540931;28;19925;-77
2022/09/17 14:02:38;;;;;;;;;;;;;;;15.51;83.11;99294.44;10542208;28;20328;-77
2022/09/17 14:07:47;;;;;;;;;;;;;;;15.43;82.59;99286.06;10543341;28;19940;-75
2022/09/17 14:12:55;;;;;;;;;;;;;;;15.31;82.44;99281.38;10541947;28;20018;-77
2022/09/17 14:18:01;;;;;;;;;;;;;;;15.40;82.26;99283.59;10543033;28;19979;-76
2022/09/17 14:23:10;;;;;;;;;;;;;;;15.42;81.96;99278.31;10540147;28;21486;-78
2022/09/17 14:28:17;;;;;;;;;;;;;;;15.38;82.33;99281.94;10541704;28;20321;-80
2022/09/17 14:33:26;;;;;;;;;;;;;;;15.31;82.70;99284.00;10543215;28;20011;-78
2022/09/17 14:38:32;;;;;;;;;;;;;;;15.38;83.05;99282.78;10542751;28;19931;-77
2022/09/17 14:43:40;;;;;;;;;;;;;;;15.47;83.28;99281.56;10542490;28;20245;-77
2022/09/17 14:48:44;;;;;;;;;;;;;;;15.62;82.74;99273.81;10542418;28;20425;-76
2022/09/17 14:53:48;;;;;;;;;;;;;;;15.50;82.86;99281.41;10542295;28;19923;-79
2022/09/17 14:58:53;;;;;;;;;;;;;;;15.39;83.94;99288.88;10541980;28;19958;-76
2022/09/17 15:04:11;;;;;;;;;;;;;;;15.43;83.85;99285.25;10541994;28;19924;-75
2022/09/17 15:09:16;;;;;;;;;;;;;;;15.47;84.28;99292.00;10545037;28;19924;-77
2022/09/17 15:14:21;;;;;;;;;;;;;;;15.53;82.87;99287.34;10548648;28;20242;-77
2022/09/17 15:19:27;;;;;;;;;;;;;;;15.62;82.32;99278.19;10549842;28;19976;-78
2022/09/17 15:24:36;;;;;;;;;;;;;;;15.63;82.26;99278.16;10219938;28;10000124;-76
2022/09/17 15:29:41;;;;;;;;;;;;;;;15.57;82.41;99281.03;10586107;28;20323;-77
2022/09/17 15:34:45;;;;;;;;;;;;;;;15.51;83.03;99278.75;10586606;28;19934;-77
2022/09/17 15:39:50;;;;;;;;;;;;;;;15.48;83.87;99276.25;10586930;28;19927;-77
2022/09/17 15:45:06;;;;;;;;;;;;;;;15.50;84.17;99286.63;10587695;28;20400;-77
2022/09/17 15:50:14;;;;;;;;;;;;;;;15.51;84.82;99296.19;10586207;28;19923;-68
2022/09/17 15:55:32;;;;;;;;;;;;;;;15.38;85.30;99288.03;10568630;28;20328;-64
2022/09/17 16:00:35;;;;;;;;;;;;;;;15.41;86.22;99280.06;10514860;28;19925;-75
2022/09/17 16:05:43;;;;;;;;;;;;;;;15.39;86.73;99299.34;10517760;28;20011;-76
2022/09/17 16:10:47;;;;;;;;;;;;;;;15.32;87.04;99309.25;10506515;28;20364;-75
2022/09/17 16:15:51;;;;;;;;;;;;;;;15.29;87.17;99298.91;10505796;28;20382;-74
2022/09/17 16:20:54;;;;;;;;;;;;;;;15.27;87.58;99300.78;10523278;28;20023;-73
2022/09/17 16:25:58;;;;;;;;;;;;;;;15.31;87.84;99304.91;10534146;28;19999;-73
2022/09/17 16:31:01;;;;;;;;;;;;;;;15.20;88.54;99304.56;10531429;28;19967;-72
2022/09/17 16:36:04;;;;;;;;;;;;;;;15.17;88.82;99307.31;10188917;28;9999697;-71
2022/09/17 16:41:09;;;;;;;;;;;;;;;15.07;89.22;99292.97;10511741;28;19981;-73
2022/09/17 16:46:12;;;;;;;;;;;;;;;15.02;89.33;99289.72;10539960;28;19989;-74
2022/09/17 16:51:15;;;;;;;;;;;;;;;15.02;89.05;99292.31;10506534;28;19985;-73
2022/09/17 16:56:20;;;;;;;;;;;;;;;14.83;90.32;99287.09;10505436;28;20021;-70
2022/09/17 17:01:23;;;;;;;;;;;;;;;14.82;90.55;99302.84;10505505;28;20019;-69
2022/09/17 17:06:26;;;;;;;;;;;;;;;14.78;91.04;99293.41;10539184;28;20369;-66
2022/09/17 17:11:31;;;;;;;;;;;;;;;14.64;95.70;99301.00;10534770;28;20047;-67
2022/09/17 17:16:34;;;;;;;;;;;;;;;14.67;95.50;99298.25;10497301;28;20039;-72
2022/09/17 17:21:37;;;;;;;;;;;;;;;14.72;94.58;99306.78;10497371;28;19935;-74
2022/09/17 17:26:42;;;;;;;;;;;;;;;14.70;94.23;99308.59;10538233;28;19924;-74
2022/09/17 17:31:44;;;;;;;;;;;;;;;14.63;94.55;99301.94;10525803;28;20506;-73
2022/09/17 17:36:48;;;;;;;;;;;;;;;14.47;95.64;99306.97;10530777;28;20026;-72
2022/09/17 17:41:54;;;;;;;;;;;;;;;14.39;96.13;99300.38;10497418;28;20411;-77
2022/09/17 17:46:57;;;;;;;;;;;;;;;14.29;97.10;99305.13;10496309;28;19935;-75
2022/09/17 17:52:00;;;;;;;;;;;;;;;14.21;97.14;99299.34;10512272;28;19928;-66
2022/09/17 17:57:05;;;;;;;;;;;;;;;14.02;99.03;99301.03;10526118;28;19934;-67
2022/09/17 18:02:09;;;;;;;;;;;;;;;13.94;99.61;99309.16;10520576;28;20037;-71
2022/09/17 18:07:12;;;;;;;;;;;;;;;13.82;100.00;99307.03;10537984;28;20011;-70
2022/09/17 18:12:16;;;;;;;;;;;;;;;13.88;100.00;99311.16;10537714;28;19924;-68
2022/09/17 18:17:19;;;;;;;;;;;;;;;13.89;100.00;99320.69;10537223;28;19964;-69
2022/09/17 18:22:22;;;;;;;;;;;;;;;13.98;100.00;99322.09;10537178;28;19978;-75
2022/09/17 18:27:27;;;;;;;;;;;;;;;13.95;100.00;99325.66;10537163;28;19939;-76
2022/09/17 18:32:31;;;;;;;;;;;;;;;13.93;100.00;99328.31;10500732;28;20014;-75
2022/09/17 18:37:34;;;;;;;;;;;;;;;13.88;100.00;99317.22;10579250;28;19932;-76
2022/09/17 18:42:38;;;;;;;;;;;;;;;13.85;100.00;99317.38;10580445;28;19924;-75
2022/09/17 18:47:42;;;;;;;;;;;;;;;13.78;100.00;99323.72;10588324;28;19927;-77
2022/09/17 18:52:45;;;;;;;;;;;;;;;13.71;100.00;99311.84;10588176;28;19934;-77
2022/09/17 18:57:50;;;;;;;;;;;;;;;13.74;100.00;99303.03;10587436;28;20022;-76
2022/09/17 19:02:54;;;;;;;;;;;;;;;13.69;100.00;99302.38;10587099;28;20352;-76
2022/09/17 19:07:57;;;;;;;;;;;;;;;13.58;100.00;99307.16;10586999;28;19928;-76
2022/09/17 19:13:02;;;;;;;;;;;;;;;13.49;100.00;99292.75;10586197;28;19955;-74
2022/09/17 19:18:05;;;;;;;;;;;;;;;13.48;100.00;99292.78;10586464;28;19928;-75
2022/09/17 19:23:08;;;;;;;;;;;;;;;13.47;100.00;99281.53;10587045;28;19976;-76
2022/09/17 19:28:13;;;;;;;;;;;;;;;13.41;100.00;99284.34;10587968;28;20023;-75
2022/09/17 19:33:16;;;;;;;;;;;;;;;13.37;100.00;99287.13;10569871;28;20023;-76
2022/09/17 19:38:19;;;;;;;;;;;;;;;13.35;100.00;99279.38;10543634;28;20016;-78
2022/09/17 19:43:24;;;;;;;;;;;;;;;13.41;100.00;99278.28;10543563;28;19980;-76
2022/09/17 19:48:28;;;;;;;;;;;;;;;13.43;100.00;99272.09;10543321;28;20014;-76
2022/09/17 19:53:31;;;;;;;;;;;;;;;13.45;100.00;99264.22;10541742;28;19928;-76
2022/09/17 19:58:35;;;;;;;;;;;;;;;13.44;100.00;99265.16;10542068;28;20401;-76
2022/09/17 20:03:39;;;;;;;;;;;;;;;13.34;100.00;99264.63;10541886;28;19945;-75
2022/09/17 20:08:45;;;;;;;;;;;;;;;13.30;100.00;99275.25;10529307;28;19975;-74
2022/09/17 20:13:55;;;;;;;;;;;;;;;13.21;100.00;99271.25;10505764;28;19952;-74
2022/09/17 20:18:59;;;;;;;;;;;;;;;13.26;100.00;99271.91;10518112;28;20337;-73
2022/09/17 20:24:05;;;;;;;;;;;;;;;13.21;100.00;99268.63;10513334;28;20032;-73
2022/09/17 20:29:10;;;;;;;;;;;;;;;13.34;100.00;99274.25;10499944;28;20015;-75
2022/09/17 20:34:13;;;;;;;;;;;;;;;13.30;100.00;99272.66;10548160;28;19924;-73
2022/09/17 20:39:16;;;;;;;;;;;;;;;13.32;100.00;99258.63;10552048;28;19928;-78
2022/09/17 20:44:26;;;;;;;;;;;;;;;13.29;100.00;99265.72;10502595;28;19932;-74
2022/09/17 20:49:29;;;;;;;;;;;;;;;13.28;100.00;99272.72;10503180;28;19948;-76
2022/09/17 20:54:32;;;;;;;;;;;;;;;13.20;100.00;99269.53;10500825;28;20011;-66
2022/09/17 20:59:50;;;;;;;;;;;;;;;13.16;100.00;99267.09;10516499;28;20022;-66
2022/09/17 21:04:54;;;;;;;;;;;;;;;13.28;100.00;99264.03;10508855;28;20298;-77
2022/09/17 21:09:57;;;;;;;;;;;;;;;13.29;100.00;99253.53;10498180;28;19924;-73
2022/09/17 21:15:02;;;;;;;;;;;;;;;13.40;100.00;99263.56;10465218;28;19957;-77
2022/09/17 21:20:06;;;;;;;;;;;;;;;13.32;100.00;99258.63;10498940;28;19968;-75
2022/09/17 21:25:09;;;;;;;;;;;;;;;13.40;100.00;99251.38;10496635;28;19963;-76
2022/09/17 21:30:14;;;;;;;;;;;;;;;13.28;100.00;99257.06;10497033;28;19939;-74
2022/09/17 21:35:17;;;;;;;;;;;;;;;13.27;100.00;99259.75;10495165;28;20368;-68
2022/09/17 21:40:20;;;;;;;;;;;;;;;13.24;100.00;99263.31;10495970;28;20012;-67
2022/09/17 21:45:24;;;;;;;;;;;;;;;13.27;100.00;99264.97;10495866;28;19936;-74
2022/09/17 21:50:27;;;;;;;;;;;;;;;13.34;100.00;99259.44;10500919;28;19955;-76
2022/09/17 21:55:30;;;;;;;;;;;;;;;13.40;100.00;99254.00;10501837;28;19935;-74
2022/09/17 22:00:34;;;;;;;;;;;;;;;13.45;100.00;99265.09;10501170;28;20249;-73
2022/09/17 22:05:37;;;;;;;;;;;;;;;13.46;100.00;99261.56;10143854;28;9999931;-68
2022/09/17 22:10:40;;;;;;;;;;;;;;;13.41;100.00;99258.28;10492592;28;20265;-68
2022/09/17 22:15:55;;;;;;;;;;;;;;;13.44;100.00;99252.94;10528068;28;19963;-77
2022/09/17 22:20:58;;;;;;;;;;;;;;;13.60;100.00;99256.66;10536209;28;19925;-76
2022/09/17 22:26:02;;;;;;;;;;;;;;;13.71;100.00;99249.25;10534483;28;19997;-75
2022/09/17 22:31:08;;;;;;;;;;;;;;;13.60;100.00;99248.81;10534978;28;20676;-75
2022/09/17 22:36:12;;;;;;;;;;;;;;;13.53;100.00;99242.16;10496002;28;19932;-71
2022/09/17 22:41:16;;;;;;;;;;;;;;;13.53;100.00;99231.72;10521785;28;20018;-69
2022/09/17 22:46:21;;;;;;;;;;;;;;;13.47;100.00;99237.19;10526591;28;19939;-70
2022/09/17 22:51:25;;;;;;;;;;;;;;;13.41;100.00;99239.19;10495463;28;20027;-74
2022/09/17 22:56:28;;;;;;;;;;;;;;;13.50;100.00;99234.47;10495135;28;19924;-74
2022/09/17 23:01:35;;;;;;;;;;;;;;;13.55;100.00;99222.09;10494599;28;19928;-75
2022/09/17 23:06:40;;;;;;;;;;;;;;;13.52;100.00;99223.97;10544622;28;19942;-73
2022/09/17 23:11:44;;;;;;;;;;;;;;;13.42;100.00;99223.50;10578094;28;20343;-72
2022/09/17 23:16:48;;;;;;;;;;;;;;;13.46;100.00;99226.84;10578201;28;20010;-70
2022/09/17 23:21:52;;;;;;;;;;;;;;;13.51;100.00;99223.13;10563015;28;19924;-76
2022/09/17 23:26:56;;;;;;;;;;;;;;;13.48;100.00;99212.81;10501849;28;19924;-74
2022/09/17 23:32:01;;;;;;;;;;;;;;;13.49;100.00;99213.69;10502021;28;19928;-75
2022/09/17 23:37:04;;;;;;;;;;;;;;;13.57;100.00;99206.38;10524869;28;20038;-76
2022/09/17 23:42:07;;;;;;;;;;;;;;;13.51;100.00;99207.47;10543500;28;19936;-75
2022/09/17 23:47:11;;;;;;;;;;;;;;;13.53;100.00;99207.44;10544005;28;20023;-76
2022/09/17 23:52:14;;;;;;;;;;;;;;;13.52;100.00;99203.97;10543211;28;19932;-77
2022/09/17 23:57:17;;;;;;;;;;;;;;;13.42;100.00;99192.22;10543649;28;19928;-74
